sensor_id;sensor_type;location;lat;lon;timestamp;pressure;altitude;pressure_sealevel;temperature;humidity
46506;BME280;32220;49.808;9.968;2024-01-06T11:05:29;98064.56;;;5.82;100.00
46506;BME280;32220;49.808;9.968;2024-01-06T11:07:58;98043.88;;;6.53;100.00
46506;BME280;32220;49.808;9.968;2024-01-06T11:10:28;98106.03;;;7.69;100.00
46506;BME280;32220;49.808;9.968;2024-01-06T11:13:09;98098.19;;;8.37;100.00
46506;BME280;32220;49.808;9.968;2024-01-06T11:15:42;98079.16;;;8.72;100.00
46506;BME280;32220;49.808;9.968;2024-01-06T11:18:30;98081.38;;;9.16;100.00
46506;BME280;32220;49.808;9.968;2024-01-06T11:21:19;98102.72;;;9.63;100.00
46506;BME280;32220;49.808;9.968;2024-01-06T11:24:11;98113.59;;;10.08;100.00
46506;BME280;32220;49.808;9.968;2024-01-06T11:26:42;98057.69;;;10.25;100.00
46506;BME280;32220;49.808;9.968;2024-01-06T11:29:10;98115.78;;;11.32;100.00
46506;BME280;32220;49.808;9.968;2024-01-06T11:31:39;98085.22;;;11.83;96.98
46506;BME280;32220;49.808;9.968;2024-01-06T11:34:14;98122.03;;;12.31;91.42
46506;BME280;32220;49.808;9.968;2024-01-06T11:36:45;98109.78;;;12.83;89.06
46506;BME280;32220;49.808;9.968;2024-01-06T11:39:36;98122.38;;;14.14;84.91
46506;BME280;32220;49.808;9.968;2024-01-06T11:42:05;98109.16;;;14.43;77.84
46506;BME280;32220;49.808;9.968;2024-01-06T11:44:34;98130.22;;;14.74;72.92
46506;BME280;32220;49.808;9.968;2024-01-06T11:47:02;98121.94;;;14.49;74.85
46506;BME280;32220;49.808;9.968;2024-01-06T11:49:30;98094.78;;;14.05;75.22
46506;BME280;32220;49.808;9.968;2024-01-06T11:51:59;98126.72;;;14.05;72.76
46506;BME280;32220;49.808;9.968;2024-01-06T11:54:27;98089.28;;;13.57;72.44
46506;BME280;32220;49.808;9.968;2024-01-06T11:56:55;98087.75;;;13.34;74.26
46506;BME280;32220;49.808;9.968;2024-01-06T11:59:23;98126.81;;;13.33;74.84
46506;BME280;32220;49.808;9.968;2024-01-06T12:01:51;98123.41;;;13.10;73.99
46506;BME280;32220;49.808;9.968;2024-01-06T12:04:18;98067.63;;;12.57;74.69
46506;BME280;32220;49.808;9.968;2024-01-06T12:06:48;98113.66;;;12.79;75.59
46506;BME280;32220;49.808;9.968;2024-01-06T12:09:17;98079.84;;;12.49;76.32
46506;BME280;32220;49.808;9.968;2024-01-06T12:11:46;98065.75;;;12.37;76.45
46506;BME280;32220;49.808;9.968;2024-01-06T12:14:14;98064.34;;;12.33;76.72
46506;BME280;32220;49.808;9.968;2024-01-06T12:16:42;98064.59;;;12.30;75.97
46506;BME280;32220;49.808;9.968;2024-01-06T12:19:09;98070.53;;;12.54;76.06
46506;BME280;32220;49.808;9.968;2024-01-06T12:21:37;98101.88;;;13.13;75.88
46506;BME280;32220;49.808;9.968;2024-01-06T12:24:17;98105.81;;;14.00;74.12
46506;BME280;32220;49.808;9.968;2024-01-06T12:26:47;98110.72;;;14.45;71.12
46506;BME280;32220;49.808;9.968;2024-01-06T12:29:16;98129.53;;;14.63;69.36
46506;BME280;32220;49.808;9.968;2024-01-06T12:31:44;98064.03;;;14.41;68.32
46506;BME280;32220;49.808;9.968;2024-01-06T12:34:12;98088.97;;;14.98;66.13
46506;BME280;32220;49.808;9.968;2024-01-06T12:36:41;98095.44;;;14.76;65.39
46506;BME280;32220;49.808;9.968;2024-01-06T12:39:13;98126.84;;;14.63;64.85
46506;BME280;32220;49.808;9.968;2024-01-06T12:41:44;98074.03;;;14.09;65.93
46506;BME280;32220;49.808;9.968;2024-01-06T12:44:12;98095.72;;;14.44;65.65
46506;BME280;32220;49.808;9.968;2024-01-06T12:46:39;98137.66;;;15.00;63.25
46506;BME280;32220;49.808;9.968;2024-01-06T12:49:07;98124.75;;;15.05;62.93
46506;BME280;32220;49.808;9.968;2024-01-06T12:51:35;98109.75;;;14.65;62.66
46506;BME280;32220;49.808;9.968;2024-01-06T12:54:05;98123.59;;;14.40;62.95
46506;BME280;32220;49.808;9.968;2024-01-06T12:56:32;98146.78;;;14.09;61.34
46506;BME280;32220;49.808;9.968;2024-01-06T12:59:02;98130.94;;;13.77;62.96
46506;BME280;32220;49.808;9.968;2024-01-06T13:01:29;98126.78;;;13.54;63.47
46506;BME280;32220;49.808;9.968;2024-01-06T13:03:57;98085.91;;;13.13;65.12
46506;BME280;32220;49.808;9.968;2024-01-06T13:06:27;98116.88;;;13.14;64.97
46506;BME280;32220;49.808;9.968;2024-01-06T13:08:55;98102.84;;;12.91;65.67
46506;BME280;32220;49.808;9.968;2024-01-06T13:11:23;98066.44;;;12.50;66.29
46506;BME280;32220;49.808;9.968;2024-01-06T13:13:51;98124.53;;;12.76;66.64
46506;BME280;32220;49.808;9.968;2024-01-06T13:16:21;98128.78;;;12.67;67.22
46506;BME280;32220;49.808;9.968;2024-01-06T13:18:48;98102.78;;;12.50;67.67
46506;BME280;32220;49.808;9.968;2024-01-06T13:21:16;98081.13;;;12.34;68.11
46506;BME280;32220;49.808;9.968;2024-01-06T13:23:43;98128.47;;;12.61;68.13
46506;BME280;32220;49.808;9.968;2024-01-06T13:26:11;98116.91;;;12.50;68.22
46506;BME280;32220;49.808;9.968;2024-01-06T13:28:39;98101.53;;;12.33;67.83
46506;BME280;32220;49.808;9.968;2024-01-06T13:31:07;98132.13;;;12.37;67.79
46506;BME280;32220;49.808;9.968;2024-01-06T13:33:37;98062.50;;;11.91;68.79
46506;BME280;32220;49.808;9.968;2024-01-06T13:36:05;98108.31;;;12.15;69.74
46506;BME280;32220;49.808;9.968;2024-01-06T13:38:33;98124.00;;;12.18;69.71
46506;BME280;32220;49.808;9.968;2024-01-06T13:41:00;98123.78;;;12.10;69.87
46506;BME280;32220;49.808;9.968;2024-01-06T13:43:29;98119.66;;;12.06;69.78
46506;BME280;32220;49.808;9.968;2024-01-06T13:45:58;98122.69;;;12.01;70.08
46506;BME280;32220;49.808;9.968;2024-01-06T13:48:25;98119.19;;;11.90;70.20
46506;BME280;32220;49.808;9.968;2024-01-06T13:50:55;98120.78;;;11.81;70.28
46506;BME280;32220;49.808;9.968;2024-01-06T13:53:23;98127.50;;;11.74;69.84
46506;BME280;32220;49.808;9.968;2024-01-06T13:55:51;98141.38;;;11.77;70.31
46506;BME280;32220;49.808;9.968;2024-01-06T13:58:19;98146.66;;;11.66;70.00
46506;BME280;32220;49.808;9.968;2024-01-06T14:00:51;98104.00;;;11.36;70.32
46506;BME280;32220;49.808;9.968;2024-01-06T14:03:19;98102.66;;;11.30;71.01
46506;BME280;32220;49.808;9.968;2024-01-06T14:05:48;98123.03;;;11.41;71.13
46506;BME280;32220;49.808;9.968;2024-01-06T14:08:19;98149.06;;;11.47;71.76
46506;BME280;32220;49.808;9.968;2024-01-06T14:10:46;98147.72;;;11.41;70.90
46506;BME280;32220;49.808;9.968;2024-01-06T14:13:15;98146.75;;;11.31;70.89
46506;BME280;32220;49.808;9.968;2024-01-06T14:15:42;98149.50;;;11.19;70.68
46506;BME280;32220;49.808;9.968;2024-01-06T14:18:11;98152.34;;;11.04;70.65
46506;BME280;32220;49.808;9.968;2024-01-06T14:20:41;98135.75;;;10.78;71.33
46506;BME280;32220;49.808;9.968;2024-01-06T14:23:08;98121.63;;;10.67;71.75
46506;BME280;32220;49.808;9.968;2024-01-06T14:25:38;98135.09;;;10.64;71.88
46506;BME280;32220;49.808;9.968;2024-01-06T14:28:06;98131.22;;;10.57;72.12
46506;BME280;32220;49.808;9.968;2024-01-06T14:30:33;98151.97;;;10.63;72.49
46506;BME280;32220;49.808;9.968;2024-01-06T14:33:04;98136.47;;;10.46;72.48
46506;BME280;32220;49.808;9.968;2024-01-06T14:35:34;98161.75;;;10.50;72.95
46506;BME280;32220;49.808;9.968;2024-01-06T14:38:04;98159.88;;;10.39;72.97
46506;BME280;32220;49.808;9.968;2024-01-06T14:40:32;98144.88;;;10.27;73.50
46506;BME280;32220;49.808;9.968;2024-01-06T14:43:03;98154.41;;;10.29;74.03
46506;BME280;32220;49.808;9.968;2024-01-06T14:45:31;98124.41;;;10.05;74.32
46506;BME280;32220;49.808;9.968;2024-01-06T14:47:59;98106.75;;;9.93;74.92
46506;BME280;32220;49.808;9.968;2024-01-06T14:50:27;98114.81;;;9.91;75.08
46506;BME280;32220;49.808;9.968;2024-01-06T14:52:54;98151.47;;;10.08;74.81
46506;BME280;32220;49.808;9.968;2024-01-06T14:55:22;98156.13;;;10.05;75.04
46506;BME280;32220;49.808;9.968;2024-01-06T14:57:50;98103.97;;;9.70;75.07
46506;BME280;32220;49.808;9.968;2024-01-06T15:00:32;98150.97;;;9.91;74.90
46506;BME280;32220;49.808;9.968;2024-01-06T15:03:00;98178.59;;;9.99;74.85
46506;BME280;32220;49.808;9.968;2024-01-06T15:05:38;98160.22;;;9.85;75.66
46506;BME280;32220;49.808;9.968;2024-01-06T15:08:06;98165.72;;;9.82;75.89
46506;BME280;32220;49.808;9.968;2024-01-06T15:10:34;98174.69;;;9.80;76.26
46506;BME280;32220;49.808;9.968;2024-01-06T15:13:02;98170.81;;;9.72;76.62
46506;BME280;32220;49.808;9.968;2024-01-06T15:15:32;98163.00;;;9.58;76.97
46506;BME280;32220;49.808;9.968;2024-01-06T15:18:00;98142.91;;;9.43;77.26
46506;BME280;32220;49.808;9.968;2024-01-06T15:20:29;98161.09;;;9.48;77.48
46506;BME280;32220;49.808;9.968;2024-01-06T15:22:59;98156.00;;;9.32;77.58
46506;BME280;32220;49.808;9.968;2024-01-06T15:25:27;98191.31;;;9.44;77.89
46506;BME280;32220;49.808;9.968;2024-01-06T15:27:55;98159.16;;;9.12;78.34
46506;BME280;32220;49.808;9.968;2024-01-06T15:30:23;98203.38;;;9.35;79.01
46506;BME280;32220;49.808;9.968;2024-01-06T15:32:52;98203.06;;;9.27;79.54
46506;BME280;32220;49.808;9.968;2024-01-06T15:35:20;98173.94;;;9.02;79.80
46506;BME280;32220;49.808;9.968;2024-01-06T15:37:47;98198.88;;;9.10;80.50
46506;BME280;32220;49.808;9.968;2024-01-06T15:40:16;98206.25;;;9.05;81.06
46506;BME280;32220;49.808;9.968;2024-01-06T15:42:43;98188.91;;;8.88;81.16
46506;BME280;32220;49.808;9.968;2024-01-06T15:45:11;98206.22;;;8.92;81.98
46506;BME280;32220;49.808;9.968;2024-01-06T15:47:42;98210.97;;;8.87;82.48
46506;BME280;32220;49.808;9.968;2024-01-06T15:50:12;98182.72;;;8.62;83.06
46506;BME280;32220;49.808;9.968;2024-01-06T15:52:41;98199.41;;;8.63;83.38
46506;BME280;32220;49.808;9.968;2024-01-06T15:55:11;98203.06;;;8.60;83.83
46506;BME280;32220;49.808;9.968;2024-01-06T15:57:39;98214.28;;;8.64;83.85
46506;BME280;32220;49.808;9.968;2024-01-06T16:00:09;98192.38;;;8.49;83.91
46506;BME280;32220;49.808;9.968;2024-01-06T16:02:37;98186.84;;;8.40;83.90
